createdAt,value
2018-08-24T00:00:15.906Z,21.88
2018-08-24T00:02:46.275Z,22.30
2018-08-24T00:08:27.946Z,22.11
2018-08-24T00:14:36.626Z,22.06
2018-08-24T00:17:10.513Z,22.09
2018-08-24T00:19:40.169Z,22.22
2018-08-24T00:22:11.308Z,21.63
2018-08-24T00:24:40.969Z,21.54
2018-08-24T00:27:38.665Z,21.52
2018-08-24T00:32:58.017Z,21.75
2018-08-24T00:35:27.718Z,21.26
2018-08-24T00:37:57.326Z,21.97
2018-08-24T00:40:26.950Z,21.65
2018-08-24T00:42:57.019Z,21.35
2018-08-24T00:45:26.658Z,21.24
2018-08-24T00:47:56.263Z,21.36
2018-08-24T00:50:25.873Z,21.79
2018-08-24T00:52:55.490Z,22.03
2018-08-24T00:55:25.182Z,21.79
2018-08-24T00:57:54.721Z,20.83
2018-08-24T01:00:28.440Z,21.34
2018-08-24T01:02:58.141Z,20.90
2018-08-24T01:05:41.347Z,21.12
2018-08-24T01:08:12.010Z,20.85
2018-08-24T01:11:38.839Z,20.59
2018-08-24T01:17:18.673Z,21.31
2018-08-24T01:20:09.990Z,20.33
2018-08-24T01:22:42.617Z,20.61
2018-08-24T01:25:12.262Z,21.06
2018-08-24T01:30:42.014Z,21.06
2018-08-24T01:33:11.706Z,21.07
2018-08-24T01:35:41.339Z,21.22
2018-08-24T01:38:11.349Z,20.66
2018-08-24T01:40:40.999Z,20.79
2018-08-24T01:43:11.268Z,20.97
2018-08-24T01:46:06.314Z,20.72
2018-08-24T01:48:35.983Z,20.41
2018-08-24T01:51:11.819Z,21.03
2018-08-24T01:56:42.098Z,20.69
2018-08-24T01:59:12.769Z,20.80
2018-08-24T02:02:06.660Z,20.73
2018-08-24T02:04:36.708Z,20.58
2018-08-24T02:07:06.838Z,20.29
2018-08-24T02:12:56.063Z,20.63
2018-08-24T02:15:25.840Z,20.77
2018-08-24T02:18:10.383Z,19.91
2018-08-24T02:20:56.511Z,20.13
2018-08-24T02:23:41.652Z,19.84
2018-08-24T02:26:11.278Z,19.94
2018-08-24T02:28:40.946Z,19.73
2018-08-24T02:31:12.081Z,20.23
2018-08-24T02:33:41.946Z,19.50
2018-08-24T02:36:13.565Z,19.73
2018-08-24T02:38:43.174Z,19.71
2018-08-24T02:41:13.005Z,19.96
2018-08-24T02:43:42.697Z,19.55
2018-08-24T02:46:12.398Z,19.50
2018-08-24T02:48:42.053Z,19.67
2018-08-24T02:51:12.198Z,20.38
2018-08-24T02:53:41.861Z,20.57
2018-08-24T02:56:14.630Z,19.95
2018-08-24T03:03:27.102Z,20.56
2018-08-24T03:05:56.845Z,20.32
2018-08-24T03:08:26.484Z,20.59
2018-08-24T03:11:12.547Z,20.29
2018-08-24T03:13:42.194Z,20.36
2018-08-24T03:16:12.047Z,20.57
2018-08-24T03:18:43.606Z,20.55
2018-08-24T03:35:22.802Z,20.12
2018-08-24T03:37:52.404Z,20.31
2018-08-24T03:40:22.046Z,20.47
2018-08-24T03:42:52.188Z,20.25
2018-08-24T03:45:22.385Z,19.93
2018-08-24T03:47:52.007Z,20.21
2018-08-24T03:50:29.236Z,20.35
2018-08-24T03:52:58.913Z,19.96
2018-08-24T03:55:58.745Z,19.61
2018-08-24T03:58:29.122Z,20.10
2018-08-24T04:04:08.326Z,19.14
2018-08-24T04:06:37.998Z,19.51
2018-08-24T04:09:07.871Z,19.22
2018-08-24T04:11:44.325Z,19.34
2018-08-24T04:17:27.891Z,18.93
2018-08-24T04:19:57.568Z,19.16
2018-08-24T04:23:02.329Z,19.47
2018-08-24T04:25:56.993Z,19.67
2018-08-24T04:28:26.607Z,19.65
2018-08-24T04:30:56.703Z,19.60
2018-08-24T04:33:27.250Z,19.26
2018-08-24T04:35:56.874Z,19.59
2018-08-24T04:38:28.647Z,19.69
2018-08-24T04:40:59.342Z,19.44
2018-08-24T04:43:28.977Z,19.30
2018-08-24T04:45:58.627Z,19.26
2018-08-24T04:48:28.327Z,19.31
2018-08-24T04:50:58.997Z,19.56
2018-08-24T04:56:10.471Z,18.58
2018-08-24T04:58:41.098Z,19.00
2018-08-24T05:01:28.034Z,19.27
2018-08-24T05:05:17.828Z,19.08
2018-08-24T05:07:47.519Z,19.03
2018-08-24T05:10:17.123Z,19.00
2018-08-24T05:12:46.753Z,19.53
2018-08-24T05:15:16.379Z,18.76
2018-08-24T05:17:46.176Z,19.17
2018-08-24T05:20:15.819Z,18.54
2018-08-24T05:22:45.461Z,18.78
2018-08-24T05:25:15.070Z,18.37
2018-08-24T05:27:44.714Z,18.75
2018-08-24T05:30:14.363Z,18.38
2018-08-24T05:32:44.018Z,17.97
2018-08-24T05:36:00.314Z,18.78
2018-08-24T05:42:12.053Z,18.71
2018-08-24T05:44:41.752Z,19.10
2018-08-24T05:47:11.534Z,19.19
2018-08-24T05:49:47.638Z,19.01
2018-08-24T05:52:44.818Z,18.88
2018-08-24T05:55:15.074Z,19.06
2018-08-24T05:57:44.738Z,18.71
2018-08-24T06:00:16.008Z,18.99
2018-08-24T06:16:51.803Z,19.15
2018-08-24T06:19:22.015Z,19.38
2018-08-24T06:21:51.926Z,19.22
2018-08-24T06:24:21.647Z,18.93
2018-08-24T06:26:51.246Z,19.20
2018-08-24T06:29:20.933Z,19.22
2018-08-24T06:32:21.591Z,19.13
2018-08-24T06:34:51.373Z,19.37
2018-08-24T06:37:40.499Z,18.94
2018-08-24T06:40:13.254Z,19.18
2018-08-24T06:42:42.853Z,18.87
2018-08-24T06:45:12.517Z,18.79
2018-08-24T06:47:42.202Z,19.15
2018-08-24T06:50:11.864Z,19.19
2018-08-24T06:52:42.893Z,19.13
2018-08-24T06:55:22.392Z,18.99
2018-08-24T06:57:52.342Z,19.25
2018-08-24T07:00:27.022Z,19.47
2018-08-24T07:02:56.654Z,19.53
2018-08-24T07:05:26.274Z,19.28
2018-08-24T07:07:56.185Z,19.34
2018-08-24T07:10:33.359Z,19.19
2018-08-24T07:13:03.149Z,19.08
2018-08-24T07:15:37.464Z,19.10
2018-08-24T07:18:12.565Z,18.86
2018-08-24T07:20:45.716Z,19.34
2018-08-24T07:23:16.506Z,18.75
2018-08-24T07:25:47.613Z,19.08
2018-08-24T07:28:17.336Z,18.85
2018-08-24T07:30:47.081Z,19.05
2018-08-24T07:33:17.254Z,18.61
2018-08-24T07:35:46.865Z,18.65
2018-08-24T07:38:16.864Z,18.75
2018-08-24T07:40:46.885Z,18.83
2018-08-24T07:43:16.914Z,18.81
2018-08-24T07:45:53.109Z,18.64
2018-08-24T07:48:22.947Z,18.65
2018-08-24T07:50:52.957Z,18.40
2018-08-24T07:53:24.089Z,19.07
2018-08-24T07:55:54.247Z,18.94
2018-08-24T07:58:27.923Z,18.30
2018-08-24T08:00:57.715Z,18.27
2018-08-24T08:03:27.391Z,18.80
2018-08-24T08:05:57.105Z,18.45
2018-08-24T08:08:41.857Z,18.75
2018-08-24T08:11:13.266Z,18.75
2018-08-24T08:14:04.958Z,19.01
2018-08-24T08:16:34.707Z,18.79
2018-08-24T08:19:04.429Z,19.06
2018-08-24T08:21:34.102Z,19.00
2018-08-24T08:24:03.793Z,18.36
2018-08-24T08:26:33.430Z,18.31
2018-08-24T08:29:03.126Z,18.59
2018-08-24T08:31:32.810Z,18.93
2018-08-24T08:34:02.478Z,18.37
2018-08-24T08:36:32.094Z,18.38
2018-08-24T08:39:01.812Z,18.34
2018-08-24T08:41:31.450Z,18.15
2018-08-24T08:44:01.111Z,18.20
2018-08-24T08:46:30.761Z,17.98
2018-08-24T08:49:00.553Z,18.29
2018-08-24T08:51:30.165Z,18.74
2018-08-24T08:53:59.846Z,18.59
2018-08-24T08:56:29.711Z,17.45
2018-08-24T08:58:59.782Z,17.87
2018-08-24T09:01:29.486Z,18.06
2018-08-24T09:03:59.519Z,18.56
2018-08-24T09:06:29.431Z,18.63
2018-08-24T09:08:58.950Z,18.63
2018-08-24T09:11:28.565Z,17.99
2018-08-24T09:13:58.175Z,18.35
2018-08-24T09:16:27.842Z,18.43
2018-08-24T09:19:02.528Z,18.16
2018-08-24T09:21:37.396Z,18.18
2018-08-24T09:24:12.141Z,18.53
2018-08-24T09:26:46.981Z,18.60
2018-08-24T09:29:26.118Z,18.42
2018-08-24T09:31:57.461Z,18.01
2018-08-24T09:34:27.034Z,18.02
2018-08-24T09:36:56.709Z,18.50
2018-08-24T09:39:29.689Z,18.54
2018-08-24T09:42:00.513Z,18.56
2018-08-24T09:44:30.126Z,18.63
2018-08-24T09:47:04.930Z,18.36
2018-08-24T09:49:36.574Z,18.41
2018-08-24T09:52:11.323Z,18.68
2018-08-24T09:54:40.998Z,18.68
2018-08-24T09:57:10.642Z,18.14
2018-08-24T09:59:40.286Z,18.04
2018-08-24T10:02:21.358Z,18.37
2018-08-24T10:05:00.830Z,18.51
2018-08-24T10:08:37.253Z,18.69
2018-08-24T10:11:06.907Z,18.34
2018-08-24T10:13:57.089Z,18.71
2018-08-24T10:19:46.346Z,18.50
2018-08-24T10:22:15.975Z,18.46
2018-08-24T10:24:45.870Z,18.20
2018-08-24T10:27:15.567Z,18.64
2018-08-24T10:29:45.263Z,18.42
2018-08-24T10:32:15.106Z,18.33
2018-08-24T10:34:44.721Z,18.29
2018-08-24T10:37:14.350Z,18.38
2018-08-24T10:39:43.966Z,18.30
2018-08-24T10:42:13.587Z,18.25
2018-08-24T10:44:43.778Z,18.25
2018-08-24T10:47:15.683Z,18.51
2018-08-24T10:49:45.241Z,18.77
2018-08-24T10:52:14.845Z,18.68
2018-08-24T10:54:44.512Z,18.76
2018-08-24T10:57:14.133Z,19.04
2018-08-24T10:59:44.157Z,19.09
2018-08-24T11:02:13.923Z,19.04
2018-08-24T11:04:43.535Z,19.31
2018-08-24T11:07:13.387Z,19.42
2018-08-24T11:09:42.893Z,19.61
2018-08-24T11:12:12.589Z,19.84
2018-08-24T11:14:42.213Z,19.96
2018-08-24T11:17:12.103Z,19.99
2018-08-24T11:19:41.749Z,20.19
2018-08-24T11:22:14.321Z,20.34
2018-08-24T11:24:44.026Z,20.44
2018-08-24T11:27:13.691Z,20.58
2018-08-24T11:29:43.334Z,20.73
2018-08-24T11:32:13.025Z,20.74
2018-08-24T11:34:42.633Z,20.47
2018-08-24T11:37:12.427Z,20.52
2018-08-24T11:39:42.110Z,20.09
2018-08-24T11:42:11.899Z,20.34
2018-08-24T11:44:41.670Z,20.04
2018-08-24T11:47:11.342Z,20.40
2018-08-24T11:49:41.090Z,20.81
2018-08-24T11:52:12.759Z,20.72
2018-08-24T11:54:42.482Z,21.03
2018-08-24T11:57:12.113Z,21.23
2018-08-24T11:59:41.903Z,21.55
2018-08-24T12:02:15.484Z,22.01
2018-08-24T12:04:46.937Z,22.08
2018-08-24T12:07:16.645Z,22.00
2018-08-24T12:09:46.804Z,21.72
2018-08-24T12:12:16.518Z,22.01
2018-08-24T12:14:46.138Z,22.05
2018-08-24T12:17:20.823Z,21.94
2018-08-24T12:19:50.461Z,21.75
2018-08-24T12:22:20.669Z,21.39
2018-08-24T12:24:50.271Z,21.77
2018-08-24T12:27:19.892Z,21.45
2018-08-24T12:29:49.488Z,21.65
2018-08-24T12:32:19.114Z,21.99
2018-08-24T12:34:48.832Z,22.22
2018-08-24T12:37:18.377Z,22.03
2018-08-24T12:39:48.027Z,21.60
2018-08-24T12:42:17.726Z,21.77
2018-08-24T12:44:47.438Z,21.55
2018-08-24T12:47:17.046Z,21.75
2018-08-24T12:49:46.638Z,21.86
2018-08-24T12:52:16.234Z,21.82
2018-08-24T12:54:45.890Z,22.05
2018-08-24T12:57:15.477Z,22.23
2018-08-24T12:59:45.198Z,22.18
2018-08-24T13:02:14.838Z,21.61
2018-08-24T13:04:44.455Z,20.99
2018-08-24T13:07:14.084Z,21.25
2018-08-24T13:09:43.745Z,21.60
2018-08-24T13:12:13.405Z,21.34
2018-08-24T13:14:43.022Z,21.35
2018-08-24T13:17:12.922Z,21.41
2018-08-24T13:19:42.607Z,21.61
2018-08-24T13:22:12.302Z,21.45
2018-08-24T13:24:42.698Z,21.21
2018-08-24T13:27:12.343Z,21.17
2018-08-24T13:29:42.074Z,20.88
2018-08-24T13:32:11.778Z,21.09
2018-08-24T13:34:41.418Z,21.54
2018-08-24T13:37:11.147Z,21.76
2018-08-24T13:39:40.726Z,21.58
2018-08-24T13:42:10.415Z,21.61
2018-08-24T13:44:39.962Z,21.73
2018-08-24T13:47:10.027Z,21.61
2018-08-24T13:49:39.575Z,21.97
2018-08-24T13:52:09.215Z,22.01
2018-08-24T13:54:38.848Z,21.81
2018-08-24T13:57:08.718Z,21.51
2018-08-24T13:59:38.519Z,21.47
2018-08-24T14:02:08.157Z,21.32
2018-08-24T14:04:37.786Z,21.81
2018-08-24T14:07:07.530Z,21.60
2018-08-24T14:09:37.151Z,21.55
2018-08-24T14:12:06.845Z,21.61
2018-08-24T14:14:36.978Z,21.80
2018-08-24T14:17:06.818Z,21.41
2018-08-24T14:19:36.507Z,21.76
2018-08-24T14:22:06.150Z,21.08
2018-08-24T14:24:35.805Z,21.18
2018-08-24T14:27:05.415Z,20.61
2018-08-24T14:29:35.014Z,20.74
2018-08-24T14:32:04.686Z,21.10
2018-08-24T14:34:34.340Z,21.10
2018-08-24T14:37:03.952Z,21.11
2018-08-24T14:39:33.575Z,21.17
2018-08-24T14:42:03.190Z,21.43
2018-08-24T14:44:32.775Z,21.38
2018-08-24T14:47:02.386Z,21.41
2018-08-24T14:49:32.006Z,21.68
2018-08-24T14:52:01.693Z,21.68
2018-08-24T14:54:31.305Z,21.39
2018-08-24T14:57:00.917Z,20.95
2018-08-24T14:59:30.561Z,21.33
2018-08-24T15:02:00.203Z,21.32
2018-08-24T15:04:29.873Z,21.64
2018-08-24T15:06:59.485Z,21.45
2018-08-24T15:09:29.180Z,20.97
2018-08-24T15:11:58.853Z,21.27
2018-08-24T15:14:28.465Z,21.14
2018-08-24T15:16:58.083Z,21.04
2018-08-24T15:19:27.802Z,21.21
2018-08-24T15:21:57.585Z,21.06
2018-08-24T15:24:27.233Z,21.09
2018-08-24T15:26:56.825Z,20.87
2018-08-24T15:29:26.509Z,20.90
2018-08-24T15:31:56.057Z,21.23
2018-08-24T15:34:25.727Z,20.30
2018-08-24T15:36:55.453Z,21.10
2018-08-24T15:39:26.994Z,20.94
2018-08-24T15:41:57.248Z,21.00
2018-08-24T15:44:26.853Z,20.80
2018-08-24T15:46:56.462Z,20.93
2018-08-24T15:49:26.193Z,20.77
2018-08-24T15:51:55.885Z,20.65
2018-08-24T15:54:26.540Z,20.47
2018-08-24T15:56:56.253Z,20.55
2018-08-24T15:59:26.060Z,20.40
2018-08-24T16:01:55.681Z,20.48
2018-08-24T16:04:25.317Z,20.10
2018-08-24T16:06:54.998Z,20.73
2018-08-24T16:09:24.672Z,20.46
2018-08-24T16:11:55.013Z,20.26
2018-08-24T16:14:24.596Z,20.37
2018-08-24T16:16:54.298Z,19.79
2018-08-24T16:19:23.907Z,19.89
2018-08-24T16:21:53.562Z,20.33
2018-08-24T16:24:23.213Z,19.90
2018-08-24T16:26:52.835Z,20.16
2018-08-24T16:29:22.458Z,19.99
2018-08-24T16:31:52.084Z,20.09
2018-08-24T16:34:21.740Z,19.75
2018-08-24T16:36:51.336Z,19.97
2018-08-24T16:39:20.899Z,20.22
2018-08-24T16:41:50.586Z,19.95
2018-08-24T16:44:20.337Z,19.49
2018-08-24T16:46:50.039Z,19.96
2018-08-24T16:49:20.697Z,20.02
2018-08-24T16:51:50.293Z,20.06
2018-08-24T16:54:20.001Z,19.60
2018-08-24T16:56:49.657Z,19.69
2018-08-24T16:59:19.421Z,19.96
2018-08-24T17:01:49.062Z,20.06
2018-08-24T17:04:18.687Z,19.62
2018-08-24T17:06:48.350Z,19.44
2018-08-24T17:09:18.023Z,19.52
2018-08-24T17:11:47.748Z,19.64
2018-08-24T17:14:17.363Z,19.58
2018-08-24T17:16:47.043Z,19.25
2018-08-24T17:19:16.686Z,19.54
2018-08-24T17:21:46.318Z,19.81
2018-08-24T17:24:15.959Z,19.46
2018-08-24T17:26:45.601Z,19.22
2018-08-24T17:29:15.252Z,19.39
2018-08-24T17:31:45.219Z,19.40
2018-08-24T17:34:14.978Z,19.80
2018-08-24T17:36:44.644Z,19.69
2018-08-24T17:39:14.340Z,19.41
2018-08-24T17:41:44.021Z,19.49
2018-08-24T17:44:13.630Z,19.30
2018-08-24T17:46:45.321Z,19.68
2018-08-24T17:49:17.673Z,19.51
2018-08-24T17:51:47.369Z,19.27
2018-08-24T17:54:17.793Z,19.54
2018-08-24T17:56:47.443Z,19.41
2018-08-24T17:59:17.226Z,19.21
2018-08-24T18:01:47.611Z,19.49
2018-08-24T18:04:17.950Z,19.57
2018-08-24T18:06:47.706Z,19.18
2018-08-24T18:09:18.653Z,19.16
2018-08-24T18:11:48.261Z,19.36
2018-08-24T18:14:17.849Z,19.19
2018-08-24T18:16:47.478Z,19.23
2018-08-24T18:19:17.579Z,19.09
2018-08-24T18:21:47.642Z,18.91
2018-08-24T18:24:17.734Z,18.83
2018-08-24T18:26:47.377Z,19.16
2018-08-24T18:29:16.989Z,19.33
2018-08-24T18:31:46.607Z,18.97
2018-08-24T18:34:16.453Z,19.01
2018-08-24T18:36:46.134Z,18.60
2018-08-24T18:39:15.814Z,18.83
2018-08-24T18:41:45.442Z,19.01
2018-08-24T18:44:15.089Z,18.93
2018-08-24T18:46:44.853Z,19.16
2018-08-24T18:49:15.302Z,19.14
2018-08-24T18:51:44.987Z,19.27
2018-08-24T18:54:14.642Z,18.83
2018-08-24T18:56:44.286Z,18.79
2018-08-24T18:59:14.148Z,18.80
2018-08-24T19:01:43.806Z,18.89
2018-08-24T19:04:13.498Z,19.05
2018-08-24T19:06:43.214Z,18.60
2018-08-24T19:09:15.043Z,18.84
2018-08-24T19:11:50.471Z,18.62
2018-08-24T19:14:20.150Z,18.96
2018-08-24T19:16:49.834Z,19.10
2018-08-24T19:19:27.014Z,18.99
2018-08-24T19:22:01.378Z,19.09
2018-08-24T19:24:39.400Z,19.04
2018-08-24T19:27:17.571Z,19.02
2018-08-24T19:29:52.728Z,19.02
2018-08-24T19:32:22.664Z,18.83
2018-08-24T19:34:52.598Z,18.34
2018-08-24T19:37:22.279Z,17.62
2018-08-24T19:39:56.921Z,17.37
2018-08-24T19:42:27.026Z,17.84
2018-08-24T19:44:57.371Z,18.08
2018-08-24T19:47:39.227Z,17.85
2018-08-24T19:50:15.575Z,17.94
2018-08-24T19:52:46.432Z,18.03
2018-08-24T19:55:16.869Z,18.36
2018-08-24T19:57:51.684Z,18.57
2018-08-24T20:00:21.369Z,18.33
2018-08-24T20:02:51.030Z,18.59
2018-08-24T20:05:20.687Z,18.32
2018-08-24T20:07:55.458Z,18.43
2018-08-24T20:10:25.157Z,18.37
2018-08-24T20:12:54.894Z,18.31
2018-08-24T20:15:29.650Z,18.43
2018-08-24T20:17:59.438Z,18.41
2018-08-24T20:20:29.361Z,18.29
2018-08-24T20:23:03.867Z,18.52
2018-08-24T20:25:34.616Z,18.51
2018-08-24T20:28:05.057Z,18.36
2018-08-24T20:30:34.755Z,18.26
2018-08-24T20:33:05.003Z,18.24
2018-08-24T20:35:35.764Z,18.18
2018-08-24T20:38:05.986Z,17.98
2018-08-24T20:40:35.626Z,18.00
2018-08-24T20:43:05.682Z,17.97
2018-08-24T20:45:35.402Z,17.70
2018-08-24T20:48:05.338Z,17.86
2018-08-24T20:50:34.987Z,17.63
2018-08-24T20:53:04.782Z,17.52
2018-08-24T20:55:34.413Z,17.66
2018-08-24T20:58:04.065Z,17.46
2018-08-24T21:00:33.730Z,17.76
2018-08-24T21:03:03.362Z,18.03
2018-08-24T21:05:33.050Z,18.08
2018-08-24T21:08:02.709Z,17.78
2018-08-24T21:10:32.333Z,17.86
2018-08-24T21:13:06.514Z,17.67
2018-08-24T21:15:36.259Z,17.55
2018-08-24T21:18:06.031Z,17.83
2018-08-24T21:20:35.671Z,17.89
2018-08-24T21:23:05.398Z,17.97
2018-08-24T21:25:36.662Z,17.87
2018-08-24T21:28:07.115Z,17.86
2018-08-24T21:30:36.822Z,17.96
2018-08-24T21:33:06.916Z,17.95
2018-08-24T21:35:36.490Z,17.90
2018-08-24T21:38:07.823Z,17.30
2018-08-24T21:40:38.435Z,16.69
2018-08-24T21:43:09.243Z,16.84
2018-08-24T21:45:39.502Z,16.55
2018-08-24T21:48:09.210Z,16.84
2018-08-24T21:50:39.776Z,16.65
2018-08-24T21:53:10.594Z,17.02
2018-08-24T21:55:40.745Z,17.19
2018-08-24T21:58:10.946Z,17.01
2018-08-24T22:00:40.742Z,17.31
2018-08-24T22:03:11.615Z,17.21
2018-08-24T22:05:42.158Z,16.80
2018-08-24T22:08:12.522Z,16.43
2018-08-24T22:10:42.336Z,16.42
2018-08-24T22:13:12.371Z,16.17
2018-08-24T22:15:44.006Z,16.08
2018-08-24T22:18:13.689Z,16.38
2018-08-24T22:20:48.072Z,16.24
2018-08-24T22:23:19.519Z,16.27
2018-08-24T22:25:49.271Z,16.13
2018-08-24T22:28:18.913Z,16.21
2018-08-24T22:30:48.549Z,16.67
2018-08-24T22:33:18.205Z,16.68
2018-08-24T22:35:49.477Z,16.89
2018-08-24T22:38:19.197Z,16.83
2018-08-24T22:40:48.972Z,17.02
2018-08-24T22:43:23.897Z,16.81
2018-08-24T22:46:10.376Z,16.68
2018-08-24T22:48:40.338Z,16.93
2018-08-24T22:51:09.999Z,17.01
2018-08-24T22:53:39.656Z,17.10
2018-08-24T22:56:10.597Z,17.21
2018-08-24T22:58:40.218Z,17.12
2018-08-24T23:01:09.873Z,17.15
2018-08-24T23:03:39.595Z,16.62
2018-08-24T23:06:09.234Z,16.84
2018-08-24T23:08:40.094Z,16.63
2018-08-24T23:11:09.751Z,16.89
2018-08-24T23:13:39.470Z,16.75
2018-08-24T23:16:10.202Z,17.00
2018-08-24T23:18:39.850Z,16.69
2018-08-24T23:21:09.510Z,16.97
2018-08-24T23:23:39.132Z,17.08
2018-08-24T23:26:08.823Z,16.77
2018-08-24T23:28:38.426Z,17.00
2018-08-24T23:31:08.050Z,16.95
2018-08-24T23:33:37.664Z,17.12
2018-08-24T23:37:00.174Z,17.16
2018-08-24T23:39:32.252Z,17.14
2018-08-24T23:42:02.030Z,17.19
2018-08-24T23:44:33.676Z,17.07
2018-08-24T23:47:03.383Z,17.09
2018-08-24T23:49:33.002Z,17.06
2018-08-24T23:52:02.671Z,16.66
2018-08-24T23:54:33.651Z,16.98
2018-08-24T23:57:10.560Z,17.09
2018-08-24T23:59:40.261Z,17.08
